sensor_id;sensor_type;location;lat;lon;timestamp;P1;durP1;ratioP1;P2;durP2;ratioP2
65665;SDS011;52365;47.464;18.976;2022-11-18T00:00:16;32.75;;;22.37;;
65665;SDS011;52365;47.464;18.976;2022-11-18T00:00:52;34.00;;;22.75;;
65665;SDS011;52365;47.464;18.976;2022-11-18T00:01:28;32.47;;;22.55;;
65665;SDS011;52365;47.464;18.976;2022-11-18T00:02:05;33.33;;;22.92;;
65665;SDS011;52365;47.464;18.976;2022-11-18T00:02:41;34.88;;;22.58;;
65665;SDS011;52365;47.464;18.976;2022-11-18T00:03:17;34.00;;;22.50;;
65665;SDS011;52365;47.464;18.976;2022-11-18T00:03:53;35.03;;;22.23;;
65665;SDS011;52365;47.464;18.976;2022-11-18T00:04:29;30.88;;;21.42;;
65665;SDS011;52365;47.464;18.976;2022-11-18T00:05:05;31.85;;;21.67;;
65665;SDS011;52365;47.464;18.976;2022-11-18T00:05:41;32.95;;;21.67;;
65665;SDS011;52365;47.464;18.976;2022-11-18T00:06:18;32.35;;;22.08;;
65665;SDS011;52365;47.464;18.976;2022-11-18T00:06:56;32.47;;;21.52;;
65665;SDS011;52365;47.464;18.976;2022-11-18T00:07:32;32.20;;;21.92;;
65665;SDS011;52365;47.464;18.976;2022-11-18T00:08:08;30.58;;;21.12;;
65665;SDS011;52365;47.464;18.976;2022-11-18T00:08:44;30.12;;;20.62;;
65665;SDS011;52365;47.464;18.976;2022-11-18T00:09:20;29.73;;;21.20;;
65665;SDS011;52365;47.464;18.976;2022-11-18T00:09:57;30.30;;;20.80;;
65665;SDS011;52365;47.464;18.976;2022-11-18T00:10:37;30.48;;;20.80;;
65665;SDS011;52365;47.464;18.976;2022-11-18T00:11:15;30.52;;;21.00;;
65665;SDS011;52365;47.464;18.976;2022-11-18T00:12:12;31.62;;;21.67;;
65665;SDS011;52365;47.464;18.976;2022-11-18T00:13:09;30.25;;;21.25;;
65665;SDS011;52365;47.464;18.976;2022-11-18T00:14:05;30.45;;;21.48;;
65665;SDS011;52365;47.464;18.976;2022-11-18T00:14:55;29.45;;;20.48;;
65665;SDS011;52365;47.464;18.976;2022-11-18T00:15:31;32.03;;;21.42;;
65665;SDS011;52365;47.464;18.976;2022-11-18T00:16:08;30.08;;;21.10;;
65665;SDS011;52365;47.464;18.976;2022-11-18T00:16:46;31.27;;;20.95;;
65665;SDS011;52365;47.464;18.976;2022-11-18T00:17:34;29.92;;;20.60;;
65665;SDS011;52365;47.464;18.976;2022-11-18T00:18:10;29.98;;;20.67;;
65665;SDS011;52365;47.464;18.976;2022-11-18T00:18:46;31.77;;;20.27;;
65665;SDS011;52365;47.464;18.976;2022-11-18T00:19:23;31.10;;;21.05;;
65665;SDS011;52365;47.464;18.976;2022-11-18T00:20:01;33.40;;;22.52;;
65665;SDS011;52365;47.464;18.976;2022-11-18T00:20:37;36.42;;;23.12;;
65665;SDS011;52365;47.464;18.976;2022-11-18T00:21:14;32.40;;;22.10;;
65665;SDS011;52365;47.464;18.976;2022-11-18T00:21:51;30.35;;;21.08;;
65665;SDS011;52365;47.464;18.976;2022-11-18T00:22:28;32.42;;;21.08;;
65665;SDS011;52365;47.464;18.976;2022-11-18T00:23:04;30.37;;;20.85;;
65665;SDS011;52365;47.464;18.976;2022-11-18T00:23:40;30.90;;;21.40;;
65665;SDS011;52365;47.464;18.976;2022-11-18T00:24:16;33.22;;;21.00;;
65665;SDS011;52365;47.464;18.976;2022-11-18T00:24:52;30.02;;;20.42;;
65665;SDS011;52365;47.464;18.976;2022-11-18T00:25:28;29.25;;;19.70;;
65665;SDS011;52365;47.464;18.976;2022-11-18T00:26:11;30.62;;;20.12;;
65665;SDS011;52365;47.464;18.976;2022-11-18T00:26:48;29.05;;;19.85;;
65665;SDS011;52365;47.464;18.976;2022-11-18T00:27:24;27.50;;;18.60;;
65665;SDS011;52365;47.464;18.976;2022-11-18T00:28:03;31.95;;;20.10;;
65665;SDS011;52365;47.464;18.976;2022-11-18T00:28:39;28.58;;;19.30;;
65665;SDS011;52365;47.464;18.976;2022-11-18T00:29:16;26.40;;;18.95;;
65665;SDS011;52365;47.464;18.976;2022-11-18T00:29:52;28.52;;;19.17;;
65665;SDS011;52365;47.464;18.976;2022-11-18T00:30:28;31.37;;;20.05;;
65665;SDS011;52365;47.464;18.976;2022-11-18T00:31:08;30.17;;;20.08;;
65665;SDS011;52365;47.464;18.976;2022-11-18T00:31:46;27.23;;;18.35;;
65665;SDS011;52365;47.464;18.976;2022-11-18T00:32:22;27.77;;;18.98;;
65665;SDS011;52365;47.464;18.976;2022-11-18T00:32:58;28.33;;;18.80;;
65665;SDS011;52365;47.464;18.976;2022-11-18T00:33:34;28.27;;;18.48;;
65665;SDS011;52365;47.464;18.976;2022-11-18T00:34:14;28.12;;;19.35;;
65665;SDS011;52365;47.464;18.976;2022-11-18T00:34:52;28.70;;;19.90;;
65665;SDS011;52365;47.464;18.976;2022-11-18T00:35:28;29.17;;;20.00;;
65665;SDS011;52365;47.464;18.976;2022-11-18T00:36:05;31.77;;;20.55;;
65665;SDS011;52365;47.464;18.976;2022-11-18T00:36:43;32.03;;;21.85;;
65665;SDS011;52365;47.464;18.976;2022-11-18T00:37:20;33.70;;;22.20;;
65665;SDS011;52365;47.464;18.976;2022-11-18T00:37:56;32.90;;;21.45;;
65665;SDS011;52365;47.464;18.976;2022-11-18T00:38:32;35.22;;;22.40;;
65665;SDS011;52365;47.464;18.976;2022-11-18T00:39:12;34.63;;;22.13;;
65665;SDS011;52365;47.464;18.976;2022-11-18T00:39:50;31.52;;;21.83;;
65665;SDS011;52365;47.464;18.976;2022-11-18T00:40:26;28.42;;;19.62;;
65665;SDS011;52365;47.464;18.976;2022-11-18T00:41:06;29.77;;;19.33;;
65665;SDS011;52365;47.464;18.976;2022-11-18T00:41:44;30.42;;;19.30;;
65665;SDS011;52365;47.464;18.976;2022-11-18T00:42:43;25.70;;;18.50;;
65665;SDS011;52365;47.464;18.976;2022-11-18T00:43:28;27.77;;;18.92;;
65665;SDS011;52365;47.464;18.976;2022-11-18T00:44:05;28.05;;;18.80;;
65665;SDS011;52365;47.464;18.976;2022-11-18T00:44:41;26.20;;;18.17;;
65665;SDS011;52365;47.464;18.976;2022-11-18T00:45:17;26.65;;;18.17;;
65665;SDS011;52365;47.464;18.976;2022-11-18T00:45:54;28.63;;;19.30;;
65665;SDS011;52365;47.464;18.976;2022-11-18T00:46:31;27.33;;;18.33;;
65665;SDS011;52365;47.464;18.976;2022-11-18T00:47:07;28.20;;;18.92;;
65665;SDS011;52365;47.464;18.976;2022-11-18T00:47:43;28.20;;;19.05;;
65665;SDS011;52365;47.464;18.976;2022-11-18T00:48:19;26.37;;;18.60;;
65665;SDS011;52365;47.464;18.976;2022-11-18T00:48:56;26.52;;;18.70;;
65665;SDS011;52365;47.464;18.976;2022-11-18T00:49:32;26.08;;;18.58;;
65665;SDS011;52365;47.464;18.976;2022-11-18T00:50:08;27.65;;;18.73;;
65665;SDS011;52365;47.464;18.976;2022-11-18T00:50:44;27.53;;;18.60;;
65665;SDS011;52365;47.464;18.976;2022-11-18T00:51:20;27.33;;;19.08;;
65665;SDS011;52365;47.464;18.976;2022-11-18T00:51:56;28.70;;;19.35;;
65665;SDS011;52365;47.464;18.976;2022-11-18T00:52:32;27.50;;;19.30;;
65665;SDS011;52365;47.464;18.976;2022-11-18T00:53:08;28.55;;;19.52;;
65665;SDS011;52365;47.464;18.976;2022-11-18T00:53:44;27.87;;;19.23;;
65665;SDS011;52365;47.464;18.976;2022-11-18T00:54:20;26.67;;;18.73;;
65665;SDS011;52365;47.464;18.976;2022-11-18T00:54:56;27.87;;;18.73;;
65665;SDS011;52365;47.464;18.976;2022-11-18T00:55:32;25.45;;;18.23;;
65665;SDS011;52365;47.464;18.976;2022-11-18T00:56:09;27.17;;;18.45;;
65665;SDS011;52365;47.464;18.976;2022-11-18T00:56:45;25.48;;;18.10;;
65665;SDS011;52365;47.464;18.976;2022-11-18T00:57:22;27.45;;;17.95;;
65665;SDS011;52365;47.464;18.976;2022-11-18T00:57:58;23.50;;;17.02;;
65665;SDS011;52365;47.464;18.976;2022-11-18T00:58:34;26.17;;;17.42;;
65665;SDS011;52365;47.464;18.976;2022-11-18T00:59:10;25.62;;;17.60;;
65665;SDS011;52365;47.464;18.976;2022-11-18T00:59:47;26.02;;;17.92;;
65665;SDS011;52365;47.464;18.976;2022-11-18T01:00:23;26.85;;;17.87;;
65665;SDS011;52365;47.464;18.976;2022-11-18T01:00:59;26.45;;;18.05;;
65665;SDS011;52365;47.464;18.976;2022-11-18T01:01:36;27.87;;;18.77;;
65665;SDS011;52365;47.464;18.976;2022-11-18T01:02:12;26.17;;;17.52;;
65665;SDS011;52365;47.464;18.976;2022-11-18T01:02:48;27.70;;;18.33;;
65665;SDS011;52365;47.464;18.976;2022-11-18T01:03:24;26.23;;;18.08;;
65665;SDS011;52365;47.464;18.976;2022-11-18T01:04:01;27.00;;;18.05;;
65665;SDS011;52365;47.464;18.976;2022-11-18T01:04:37;26.40;;;17.25;;
65665;SDS011;52365;47.464;18.976;2022-11-18T01:05:13;25.70;;;17.50;;
65665;SDS011;52365;47.464;18.976;2022-11-18T01:05:49;25.80;;;17.87;;
65665;SDS011;52365;47.464;18.976;2022-11-18T01:06:26;24.90;;;17.27;;
65665;SDS011;52365;47.464;18.976;2022-11-18T01:07:02;26.27;;;17.55;;
65665;SDS011;52365;47.464;18.976;2022-11-18T01:07:38;27.25;;;17.92;;
65665;SDS011;52365;47.464;18.976;2022-11-18T01:08:14;25.70;;;17.83;;
65665;SDS011;52365;47.464;18.976;2022-11-18T01:08:50;25.00;;;17.52;;
65665;SDS011;52365;47.464;18.976;2022-11-18T01:09:26;25.95;;;17.92;;
65665;SDS011;52365;47.464;18.976;2022-11-18T01:10:02;29.05;;;18.48;;
65665;SDS011;52365;47.464;18.976;2022-11-18T01:10:39;25.00;;;17.48;;
65665;SDS011;52365;47.464;18.976;2022-11-18T01:11:16;28.38;;;18.12;;
65665;SDS011;52365;47.464;18.976;2022-11-18T01:12:11;27.33;;;18.37;;
65665;SDS011;52365;47.464;18.976;2022-11-18T01:13:06;25.37;;;17.80;;
65665;SDS011;52365;47.464;18.976;2022-11-18T01:13:55;28.62;;;18.80;;
65665;SDS011;52365;47.464;18.976;2022-11-18T01:14:31;26.87;;;18.37;;
65665;SDS011;52365;47.464;18.976;2022-11-18T01:15:07;29.92;;;19.95;;
65665;SDS011;52365;47.464;18.976;2022-11-18T01:15:44;28.17;;;18.37;;
65665;SDS011;52365;47.464;18.976;2022-11-18T01:16:22;28.02;;;19.35;;
65665;SDS011;52365;47.464;18.976;2022-11-18T01:17:01;29.83;;;19.62;;
65665;SDS011;52365;47.464;18.976;2022-11-18T01:17:37;28.25;;;18.98;;
65665;SDS011;52365;47.464;18.976;2022-11-18T01:18:13;30.90;;;19.52;;
65665;SDS011;52365;47.464;18.976;2022-11-18T01:18:50;30.00;;;20.08;;
65665;SDS011;52365;47.464;18.976;2022-11-18T01:19:27;30.73;;;19.92;;
65665;SDS011;52365;47.464;18.976;2022-11-18T01:20:03;30.40;;;19.83;;
65665;SDS011;52365;47.464;18.976;2022-11-18T01:20:40;28.05;;;19.27;;
65665;SDS011;52365;47.464;18.976;2022-11-18T01:21:16;29.25;;;20.20;;
65665;SDS011;52365;47.464;18.976;2022-11-18T01:21:52;28.77;;;19.77;;
65665;SDS011;52365;47.464;18.976;2022-11-18T01:22:31;29.30;;;19.12;;
65665;SDS011;52365;47.464;18.976;2022-11-18T01:23:07;28.00;;;18.23;;
65665;SDS011;52365;47.464;18.976;2022-11-18T01:23:43;28.55;;;19.52;;
65665;SDS011;52365;47.464;18.976;2022-11-18T01:24:20;28.70;;;18.95;;
65665;SDS011;52365;47.464;18.976;2022-11-18T01:24:57;28.45;;;19.08;;
65665;SDS011;52365;47.464;18.976;2022-11-18T01:25:34;28.67;;;18.95;;
65665;SDS011;52365;47.464;18.976;2022-11-18T01:26:12;26.62;;;18.62;;
65665;SDS011;52365;47.464;18.976;2022-11-18T01:26:50;28.95;;;19.87;;
65665;SDS011;52365;47.464;18.976;2022-11-18T01:27:26;29.70;;;19.67;;
65665;SDS011;52365;47.464;18.976;2022-11-18T01:28:02;28.25;;;19.40;;
65665;SDS011;52365;47.464;18.976;2022-11-18T01:28:38;28.42;;;18.80;;
65665;SDS011;52365;47.464;18.976;2022-11-18T01:29:15;31.15;;;20.15;;
65665;SDS011;52365;47.464;18.976;2022-11-18T01:29:51;28.87;;;19.45;;
65665;SDS011;52365;47.464;18.976;2022-11-18T01:30:27;29.25;;;19.27;;
65665;SDS011;52365;47.464;18.976;2022-11-18T01:31:04;31.45;;;20.40;;
65665;SDS011;52365;47.464;18.976;2022-11-18T01:31:43;31.75;;;20.12;;
65665;SDS011;52365;47.464;18.976;2022-11-18T01:32:19;29.10;;;19.50;;
65665;SDS011;52365;47.464;18.976;2022-11-18T01:32:55;28.50;;;19.50;;
65665;SDS011;52365;47.464;18.976;2022-11-18T01:33:32;29.52;;;19.35;;
65665;SDS011;52365;47.464;18.976;2022-11-18T01:34:08;28.33;;;19.42;;
65665;SDS011;52365;47.464;18.976;2022-11-18T01:34:44;28.62;;;19.70;;
65665;SDS011;52365;47.464;18.976;2022-11-18T01:35:20;28.62;;;19.08;;
65665;SDS011;52365;47.464;18.976;2022-11-18T01:35:56;29.65;;;19.77;;
65665;SDS011;52365;47.464;18.976;2022-11-18T01:36:32;29.25;;;19.70;;
65665;SDS011;52365;47.464;18.976;2022-11-18T01:37:08;27.15;;;19.08;;
65665;SDS011;52365;47.464;18.976;2022-11-18T01:37:44;29.02;;;20.12;;
65665;SDS011;52365;47.464;18.976;2022-11-18T01:38:20;28.12;;;19.08;;
65665;SDS011;52365;47.464;18.976;2022-11-18T01:38:56;28.00;;;18.80;;
65665;SDS011;52365;47.464;18.976;2022-11-18T01:39:32;28.85;;;19.23;;
65665;SDS011;52365;47.464;18.976;2022-11-18T01:40:09;28.38;;;19.70;;
65665;SDS011;52365;47.464;18.976;2022-11-18T01:40:45;29.35;;;19.02;;
65665;SDS011;52365;47.464;18.976;2022-11-18T01:41:22;28.60;;;19.98;;
65665;SDS011;52365;47.464;18.976;2022-11-18T01:42:00;31.50;;;19.77;;
65665;SDS011;52365;47.464;18.976;2022-11-18T01:42:36;29.67;;;19.08;;
65665;SDS011;52365;47.464;18.976;2022-11-18T01:43:14;28.02;;;19.10;;
65665;SDS011;52365;47.464;18.976;2022-11-18T01:45:39;28.02;;;18.95;;
65665;SDS011;52365;47.464;18.976;2022-11-18T01:46:16;26.62;;;18.02;;
65665;SDS011;52365;47.464;18.976;2022-11-18T01:46:53;26.15;;;17.42;;
65665;SDS011;52365;47.464;18.976;2022-11-18T01:47:34;26.15;;;18.30;;
65665;SDS011;52365;47.464;18.976;2022-11-18T01:49:02;25.12;;;17.75;;
65665;SDS011;52365;47.464;18.976;2022-11-18T01:49:42;24.85;;;17.35;;
65665;SDS011;52365;47.464;18.976;2022-11-18T01:50:19;25.62;;;17.48;;
65665;SDS011;52365;47.464;18.976;2022-11-18T01:50:57;23.58;;;16.70;;
65665;SDS011;52365;47.464;18.976;2022-11-18T01:51:48;24.52;;;16.80;;
65665;SDS011;52365;47.464;18.976;2022-11-18T01:52:28;26.50;;;17.10;;
65665;SDS011;52365;47.464;18.976;2022-11-18T01:53:06;27.83;;;17.30;;
65665;SDS011;52365;47.464;18.976;2022-11-18T01:53:54;25.12;;;16.95;;
65665;SDS011;52365;47.464;18.976;2022-11-18T01:54:38;23.00;;;16.08;;
65665;SDS011;52365;47.464;18.976;2022-11-18T01:55:21;25.12;;;16.58;;
65665;SDS011;52365;47.464;18.976;2022-11-18T01:56:01;23.85;;;16.80;;
65665;SDS011;52365;47.464;18.976;2022-11-18T01:56:42;23.98;;;16.00;;
65665;SDS011;52365;47.464;18.976;2022-11-18T01:57:22;24.73;;;17.20;;
65665;SDS011;52365;47.464;18.976;2022-11-18T01:58:04;24.87;;;16.85;;
65665;SDS011;52365;47.464;18.976;2022-11-18T01:58:46;23.73;;;16.65;;
65665;SDS011;52365;47.464;18.976;2022-11-18T01:59:27;23.02;;;16.15;;
65665;SDS011;52365;47.464;18.976;2022-11-18T02:00:06;22.98;;;16.35;;
65665;SDS011;52365;47.464;18.976;2022-11-18T02:00:43;21.70;;;15.80;;
65665;SDS011;52365;47.464;18.976;2022-11-18T02:01:19;25.00;;;16.12;;
65665;SDS011;52365;47.464;18.976;2022-11-18T02:01:55;23.55;;;15.85;;
65665;SDS011;52365;47.464;18.976;2022-11-18T02:02:32;24.02;;;16.40;;
65665;SDS011;52365;47.464;18.976;2022-11-18T02:03:11;25.27;;;17.10;;
65665;SDS011;52365;47.464;18.976;2022-11-18T02:03:48;25.95;;;18.50;;
65665;SDS011;52365;47.464;18.976;2022-11-18T02:04:26;28.08;;;19.05;;
65665;SDS011;52365;47.464;18.976;2022-11-18T02:05:04;26.80;;;18.95;;
65665;SDS011;52365;47.464;18.976;2022-11-18T02:05:42;27.85;;;19.10;;
65665;SDS011;52365;47.464;18.976;2022-11-18T02:06:21;29.15;;;19.83;;
65665;SDS011;52365;47.464;18.976;2022-11-18T02:06:57;27.80;;;19.17;;
65665;SDS011;52365;47.464;18.976;2022-11-18T02:07:34;30.67;;;19.65;;
65665;SDS011;52365;47.464;18.976;2022-11-18T02:08:14;29.50;;;19.12;;
65665;SDS011;52365;47.464;18.976;2022-11-18T02:08:52;28.10;;;18.80;;
65665;SDS011;52365;47.464;18.976;2022-11-18T02:09:29;29.80;;;19.23;;
65665;SDS011;52365;47.464;18.976;2022-11-18T02:10:05;28.27;;;18.73;;
65665;SDS011;52365;47.464;18.976;2022-11-18T02:10:42;27.52;;;18.60;;
65665;SDS011;52365;47.464;18.976;2022-11-18T02:11:18;28.83;;;18.73;;
65665;SDS011;52365;47.464;18.976;2022-11-18T02:12:13;26.75;;;18.70;;
65665;SDS011;52365;47.464;18.976;2022-11-18T02:12:50;25.35;;;17.65;;
65665;SDS011;52365;47.464;18.976;2022-11-18T02:13:27;28.08;;;18.20;;
65665;SDS011;52365;47.464;18.976;2022-11-18T02:14:06;27.95;;;18.95;;
65665;SDS011;52365;47.464;18.976;2022-11-18T02:14:44;27.83;;;18.00;;
65665;SDS011;52365;47.464;18.976;2022-11-18T02:15:24;25.95;;;18.25;;
65665;SDS011;52365;47.464;18.976;2022-11-18T02:16:12;26.05;;;18.20;;
65665;SDS011;52365;47.464;18.976;2022-11-18T02:17:53;27.30;;;18.12;;
65665;SDS011;52365;47.464;18.976;2022-11-18T02:20:45;25.95;;;17.98;;
65665;SDS011;52365;47.464;18.976;2022-11-18T02:24:18;28.85;;;18.70;;
65665;SDS011;52365;47.464;18.976;2022-11-18T02:25:05;28.77;;;19.23;;
65665;SDS011;52365;47.464;18.976;2022-11-18T02:29:08;29.45;;;18.90;;
65665;SDS011;52365;47.464;18.976;2022-11-18T02:30:09;27.73;;;18.62;;
65665;SDS011;52365;47.464;18.976;2022-11-18T02:31:53;26.90;;;18.00;;
65665;SDS011;52365;47.464;18.976;2022-11-18T02:33:38;26.90;;;18.65;;
65665;SDS011;52365;47.464;18.976;2022-11-18T02:35:17;27.60;;;18.17;;
65665;SDS011;52365;47.464;18.976;2022-11-18T02:36:01;27.48;;;18.87;;
65665;SDS011;52365;47.464;18.976;2022-11-18T02:36:51;27.45;;;18.42;;
65665;SDS011;52365;47.464;18.976;2022-11-18T02:37:36;27.30;;;18.85;;
65665;SDS011;52365;47.464;18.976;2022-11-18T02:38:27;25.92;;;18.48;;
65665;SDS011;52365;47.464;18.976;2022-11-18T02:39:12;25.90;;;18.12;;
65665;SDS011;52365;47.464;18.976;2022-11-18T02:40:06;26.95;;;17.92;;
65665;SDS011;52365;47.464;18.976;2022-11-18T02:41:04;25.98;;;18.27;;
65665;SDS011;52365;47.464;18.976;2022-11-18T02:41:44;27.08;;;18.37;;
65665;SDS011;52365;47.464;18.976;2022-11-18T02:42:22;27.25;;;18.45;;
65665;SDS011;52365;47.464;18.976;2022-11-18T02:43:05;27.08;;;18.40;;
65665;SDS011;52365;47.464;18.976;2022-11-18T02:43:49;30.12;;;20.12;;
65665;SDS011;52365;47.464;18.976;2022-11-18T02:44:41;30.40;;;20.17;;
65665;SDS011;52365;47.464;18.976;2022-11-18T02:45:24;29.10;;;20.00;;
65665;SDS011;52365;47.464;18.976;2022-11-18T02:46:04;28.60;;;19.45;;
65665;SDS011;52365;47.464;18.976;2022-11-18T02:46:47;28.92;;;19.30;;
65665;SDS011;52365;47.464;18.976;2022-11-18T02:47:28;30.55;;;19.35;;
65665;SDS011;52365;47.464;18.976;2022-11-18T02:48:07;28.77;;;19.42;;
65665;SDS011;52365;47.464;18.976;2022-11-18T02:48:47;29.27;;;19.48;;
65665;SDS011;52365;47.464;18.976;2022-11-18T02:49:30;28.48;;;19.10;;
65665;SDS011;52365;47.464;18.976;2022-11-18T02:50:12;28.12;;;19.25;;
65665;SDS011;52365;47.464;18.976;2022-11-18T02:50:52;27.95;;;19.17;;
65665;SDS011;52365;47.464;18.976;2022-11-18T02:51:29;30.15;;;19.75;;
65665;SDS011;52365;47.464;18.976;2022-11-18T02:52:08;29.12;;;20.45;;
65665;SDS011;52365;47.464;18.976;2022-11-18T02:52:46;27.77;;;18.67;;
65665;SDS011;52365;47.464;18.976;2022-11-18T02:53:27;30.85;;;20.05;;
65665;SDS011;52365;47.464;18.976;2022-11-18T02:54:06;30.35;;;19.85;;
65665;SDS011;52365;47.464;18.976;2022-11-18T02:54:46;28.23;;;19.33;;
65665;SDS011;52365;47.464;18.976;2022-11-18T02:55:13;29.37;;;19.52;;
65665;SDS011;52365;47.464;18.976;2022-11-18T02:55:51;28.20;;;19.20;;
65665;SDS011;52365;47.464;18.976;2022-11-18T02:56:29;30.20;;;19.45;;
65665;SDS011;52365;47.464;18.976;2022-11-18T02:57:07;27.23;;;18.42;;
65665;SDS011;52365;47.464;18.976;2022-11-18T02:57:44;28.30;;;18.80;;
65665;SDS011;52365;47.464;18.976;2022-11-18T02:58:22;27.10;;;18.37;;
65665;SDS011;52365;47.464;18.976;2022-11-18T02:59:01;28.92;;;19.10;;
65665;SDS011;52365;47.464;18.976;2022-11-18T02:59:38;28.27;;;18.87;;
65665;SDS011;52365;47.464;18.976;2022-11-18T03:00:14;28.70;;;19.73;;
65665;SDS011;52365;47.464;18.976;2022-11-18T03:00:54;28.45;;;19.30;;
65665;SDS011;52365;47.464;18.976;2022-11-18T03:01:32;28.45;;;18.67;;
65665;SDS011;52365;47.464;18.976;2022-11-18T03:02:17;27.87;;;18.45;;
65665;SDS011;52365;47.464;18.976;2022-11-18T03:02:54;27.33;;;18.70;;
65665;SDS011;52365;47.464;18.976;2022-11-18T03:03:31;28.77;;;19.37;;
65665;SDS011;52365;47.464;18.976;2022-11-18T03:04:09;27.13;;;18.77;;
65665;SDS011;52365;47.464;18.976;2022-11-18T03:04:47;29.90;;;19.73;;
65665;SDS011;52365;47.464;18.976;2022-11-18T03:05:29;28.95;;;18.85;;
65665;SDS011;52365;47.464;18.976;2022-11-18T03:08:14;27.98;;;18.95;;
65665;SDS011;52365;47.464;18.976;2022-11-18T03:09:01;27.95;;;19.10;;
65665;SDS011;52365;47.464;18.976;2022-11-18T03:09:53;27.35;;;18.60;;
65665;SDS011;52365;47.464;18.976;2022-11-18T03:10:38;27.85;;;18.42;;
65665;SDS011;52365;47.464;18.976;2022-11-18T03:11:25;26.25;;;18.60;;
65665;SDS011;52365;47.464;18.976;2022-11-18T03:12:18;29.10;;;19.70;;
65665;SDS011;52365;47.464;18.976;2022-11-18T03:16:02;33.58;;;21.17;;
65665;SDS011;52365;47.464;18.976;2022-11-18T03:16:55;33.50;;;21.75;;
65665;SDS011;52365;47.464;18.976;2022-11-18T03:20:50;31.40;;;20.30;;
65665;SDS011;52365;47.464;18.976;2022-11-18T03:21:42;31.65;;;20.48;;
65665;SDS011;52365;47.464;18.976;2022-11-18T03:22:27;30.40;;;20.30;;
65665;SDS011;52365;47.464;18.976;2022-11-18T03:24:11;29.45;;;20.23;;
65665;SDS011;52365;47.464;18.976;2022-11-18T03:26:16;30.73;;;20.08;;
65665;SDS011;52365;47.464;18.976;2022-11-18T03:27:03;31.17;;;20.05;;
65665;SDS011;52365;47.464;18.976;2022-11-18T03:27:54;30.05;;;19.60;;
65665;SDS011;52365;47.464;18.976;2022-11-18T03:28:38;28.67;;;19.60;;
65665;SDS011;52365;47.464;18.976;2022-11-18T03:29:22;30.25;;;20.23;;
65665;SDS011;52365;47.464;18.976;2022-11-18T03:30:05;29.67;;;19.35;;
65665;SDS011;52365;47.464;18.976;2022-11-18T03:31:11;30.23;;;19.95;;
65665;SDS011;52365;47.464;18.976;2022-11-18T03:31:59;30.70;;;20.33;;
65665;SDS011;52365;47.464;18.976;2022-11-18T03:32:41;29.77;;;20.52;;
65665;SDS011;52365;47.464;18.976;2022-11-18T03:33:27;31.15;;;19.73;;
65665;SDS011;52365;47.464;18.976;2022-11-18T03:35:13;31.33;;;20.00;;
65665;SDS011;52365;47.464;18.976;2022-11-18T03:35:55;29.52;;;20.08;;
65665;SDS011;52365;47.464;18.976;2022-11-18T03:36:35;30.27;;;20.40;;
65665;SDS011;52365;47.464;18.976;2022-11-18T03:37:17;29.37;;;19.45;;
65665;SDS011;52365;47.464;18.976;2022-11-18T03:37:59;29.27;;;20.02;;
65665;SDS011;52365;47.464;18.976;2022-11-18T03:38:46;30.83;;;20.00;;
65665;SDS011;52365;47.464;18.976;2022-11-18T03:39:26;29.67;;;20.02;;
65665;SDS011;52365;47.464;18.976;2022-11-18T03:40:11;28.62;;;19.77;;
65665;SDS011;52365;47.464;18.976;2022-11-18T03:41:00;28.60;;;19.10;;
65665;SDS011;52365;47.464;18.976;2022-11-18T03:41:42;29.25;;;19.33;;
65665;SDS011;52365;47.464;18.976;2022-11-18T03:42:26;29.00;;;19.77;;
65665;SDS011;52365;47.464;18.976;2022-11-18T03:43:13;29.63;;;19.90;;
65665;SDS011;52365;47.464;18.976;2022-11-18T03:43:57;28.95;;;18.83;;
65665;SDS011;52365;47.464;18.976;2022-11-18T03:44:40;28.60;;;19.58;;
65665;SDS011;52365;47.464;18.976;2022-11-18T03:45:30;29.00;;;19.52;;
65665;SDS011;52365;47.464;18.976;2022-11-18T03:46:35;29.23;;;19.20;;
65665;SDS011;52365;47.464;18.976;2022-11-18T03:47:16;29.17;;;19.25;;
65665;SDS011;52365;47.464;18.976;2022-11-18T03:48:02;30.13;;;20.03;;
65665;SDS011;52365;47.464;18.976;2022-11-18T03:48:44;31.60;;;20.67;;
65665;SDS011;52365;47.464;18.976;2022-11-18T03:49:35;31.92;;;20.30;;
65665;SDS011;52365;47.464;18.976;2022-11-18T03:50:18;34.70;;;21.08;;
65665;SDS011;52365;47.464;18.976;2022-11-18T03:51:03;29.60;;;20.25;;
65665;SDS011;52365;47.464;18.976;2022-11-18T03:51:52;30.88;;;20.60;;
65665;SDS011;52365;47.464;18.976;2022-11-18T03:52:33;33.13;;;21.15;;
65665;SDS011;52365;47.464;18.976;2022-11-18T03:53:12;31.42;;;20.70;;
65665;SDS011;52365;47.464;18.976;2022-11-18T03:54:33;29.40;;;20.20;;
65665;SDS011;52365;47.464;18.976;2022-11-18T03:55:11;31.95;;;20.42;;
65665;SDS011;52365;47.464;18.976;2022-11-18T03:55:52;32.17;;;21.00;;
65665;SDS011;52365;47.464;18.976;2022-11-18T03:56:35;28.87;;;19.50;;
65665;SDS011;52365;47.464;18.976;2022-11-18T03:57:18;31.33;;;20.27;;
65665;SDS011;52365;47.464;18.976;2022-11-18T03:58:00;29.98;;;20.35;;
65665;SDS011;52365;47.464;18.976;2022-11-18T03:58:45;28.70;;;19.77;;
65665;SDS011;52365;47.464;18.976;2022-11-18T03:59:36;31.00;;;19.85;;
65665;SDS011;52365;47.464;18.976;2022-11-18T04:00:29;29.87;;;19.90;;
65665;SDS011;52365;47.464;18.976;2022-11-18T04:01:16;30.60;;;20.48;;
65665;SDS011;52365;47.464;18.976;2022-11-18T04:02:31;29.15;;;19.62;;
65665;SDS011;52365;47.464;18.976;2022-11-18T04:03:01;30.55;;;19.60;;
65665;SDS011;52365;47.464;18.976;2022-11-18T04:03:38;29.65;;;20.10;;
65665;SDS011;52365;47.464;18.976;2022-11-18T04:04:14;31.85;;;20.30;;
65665;SDS011;52365;47.464;18.976;2022-11-18T04:04:51;32.63;;;21.15;;
65665;SDS011;52365;47.464;18.976;2022-11-18T04:05:31;36.78;;;22.83;;
65665;SDS011;52365;47.464;18.976;2022-11-18T04:06:21;35.53;;;22.00;;
65665;SDS011;52365;47.464;18.976;2022-11-18T04:08:32;35.80;;;21.95;;
65665;SDS011;52365;47.464;18.976;2022-11-18T04:09:17;36.45;;;21.75;;
65665;SDS011;52365;47.464;18.976;2022-11-18T04:10:10;34.45;;;21.77;;
65665;SDS011;52365;47.464;18.976;2022-11-18T04:10:55;36.97;;;22.70;;
65665;SDS011;52365;47.464;18.976;2022-11-18T04:11:39;35.95;;;21.75;;
65665;SDS011;52365;47.464;18.976;2022-11-18T04:12:46;33.67;;;22.10;;
65665;SDS011;52365;47.464;18.976;2022-11-18T04:13:32;32.80;;;21.50;;
65665;SDS011;52365;47.464;18.976;2022-11-18T04:14:10;34.15;;;21.77;;
65665;SDS011;52365;47.464;18.976;2022-11-18T04:14:47;36.17;;;21.92;;
65665;SDS011;52365;47.464;18.976;2022-11-18T04:15:26;32.15;;;21.12;;
65665;SDS011;52365;47.464;18.976;2022-11-18T04:16:05;34.42;;;21.42;;
65665;SDS011;52365;47.464;18.976;2022-11-18T04:16:43;32.97;;;21.65;;
65665;SDS011;52365;47.464;18.976;2022-11-18T04:17:21;32.08;;;20.85;;
65665;SDS011;52365;47.464;18.976;2022-11-18T04:17:58;34.97;;;21.75;;
65665;SDS011;52365;47.464;18.976;2022-11-18T04:18:34;35.67;;;22.02;;
65665;SDS011;52365;47.464;18.976;2022-11-18T04:19:10;32.28;;;21.58;;
65665;SDS011;52365;47.464;18.976;2022-11-18T04:19:46;33.90;;;21.73;;
65665;SDS011;52365;47.464;18.976;2022-11-18T04:20:23;32.25;;;21.17;;